Time;durP1;ratioP1;P1;durP2;ratioP2;P2;SDS_P1;SDS_P2;PMS_P1;PMS_P2;Temp;Humidity;BMP_temperature;BMP_pressure;BME280_temperature;BME280_humidity;BME280_pressure;Samples;Min_cycle;Max_cycle;Signal;HPM_P1;HPM_P2
2020/12/13 00:02:20;;;;;;;4.13;3.50;;;19.30;41.80;;;;;;5069759;28;20112;-44
2020/12/13 00:04:46;;;;;;;4.10;3.47;;;19.30;41.80;;;;;;5076931;28;20486;-48
2020/12/13 00:07:11;;;;;;;5.82;3.67;;;19.20;41.80;;;;;;5069002;28;20039;-45
2020/12/13 00:09:37;;;;;;;5.05;3.15;;;19.20;41.80;;;;;;5064773;28;20421;-45
2020/12/13 00:12:04;;;;;;;3.83;3.40;;;19.20;41.90;;;;;;5065418;28;20036;-43
2020/12/13 00:14:30;;;;;;;3.45;2.88;;;19.20;41.80;;;;;;5063637;28;20094;-44
2020/12/13 00:16:56;;;;;;;4.07;3.67;;;19.20;41.90;;;;;;5060268;28;20107;-47
2020/12/13 00:19:22;;;;;;;3.72;3.28;;;19.20;41.90;;;;;;5067132;28;20132;-47
2020/12/13 00:21:49;;;;;;;5.65;3.72;;;19.20;42.00;;;;;;5071305;28;20142;-43
2020/12/13 00:24:15;;;;;;;5.05;3.53;;;19.20;41.80;;;;;;5073167;28;20025;-51
2020/12/13 00:26:41;;;;;;;3.85;3.20;;;19.20;41.70;;;;;;5068904;28;20547;-45
2020/12/13 00:29:06;;;;;;;5.97;3.95;;;19.20;41.80;;;;;;5076022;28;20032;-46
2020/12/13 00:31:32;;;;;;;3.33;3.10;;;19.20;41.70;;;;;;5071415;28;20071;-48
2020/12/13 00:33:57;;;;;;;4.65;3.88;;;19.20;41.90;;;;;;5079382;28;20048;-46
2020/12/13 00:36:23;;;;;;;4.25;3.85;;;19.20;41.80;;;;;;5072614;28;20024;-44
2020/12/13 00:38:50;;;;;;;4.32;3.92;;;19.20;41.80;;;;;;5086963;28;20028;-44
2020/12/13 00:41:16;;;;;;;4.80;3.70;;;19.20;41.80;;;;;;5071111;28;20447;-45
2020/12/13 00:43:41;;;;;;;3.97;3.10;;;19.20;41.80;;;;;;5072687;28;20028;-46
2020/12/13 00:46:07;;;;;;;4.70;3.55;;;19.20;41.80;;;;;;5075226;28;20031;-47
2020/12/13 00:48:32;;;;;;;4.35;3.75;;;19.20;41.80;;;;;;5065117;28;20040;-45
2020/12/13 00:50:58;;;;;;;4.88;3.85;;;19.20;41.80;;;;;;5070211;28;20052;-47
2020/12/13 00:53:24;;;;;;;4.82;3.40;;;19.20;41.90;;;;;;5067839;28;20048;-44
2020/12/13 00:55:49;;;;;;;5.00;3.53;;;19.20;42.00;;;;;;5077919;28;20104;-46
2020/12/13 00:58:15;;;;;;;3.83;3.47;;;19.10;41.90;;;;;;5071490;28;20392;-48
2020/12/13 01:00:40;;;;;;;4.03;3.20;;;19.10;41.90;;;;;;5083375;22;20052;-48
2020/12/13 01:03:06;;;;;;;4.90;3.83;;;19.10;41.90;;;;;;5076658;28;20035;-48
2020/12/13 01:05:32;;;;;;;3.72;3.42;;;19.20;41.90;;;;;;5086305;28;20404;-47
2020/12/13 01:07:57;;;;;;;3.92;3.58;;;19.20;41.90;;;;;;5087736;28;20019;-49
2020/12/13 01:10:23;;;;;;;4.22;3.72;;;19.10;42.00;;;;;;5056439;28;20021;-48
2020/12/13 01:12:49;;;;;;;4.00;3.58;;;19.10;41.90;;;;;;5061660;28;20074;-47
2020/12/13 01:15:15;;;;;;;4.05;3.58;;;19.10;42.50;;;;;;5058385;28;20036;-48
2020/12/13 01:17:45;;;;;;;4.03;3.58;;;19.10;41.90;;;;;;5064245;28;20095;-47
2020/12/13 01:20:12;;;;;;;4.55;3.67;;;19.10;41.90;;;;;;5071633;28;20109;-48
2020/12/13 01:22:38;;;;;;;4.50;3.83;;;19.10;41.90;;;;;;5070614;28;20847;-49
2020/12/13 01:25:05;;;;;;;4.97;3.83;;;19.10;41.90;;;;;;5061759;28;20445;-48
2020/12/13 01:27:30;;;;;;;4.05;3.75;;;19.10;41.90;;;;;;5071087;28;20403;-47
2020/12/13 01:29:56;;;;;;;6.18;3.60;;;19.10;42.00;;;;;;5059719;28;20032;-48
2020/12/13 01:32:22;;;;;;;4.65;3.65;;;19.10;41.80;;;;;;5068293;28;20043;-48
2020/12/13 01:34:47;;;;;;;4.65;3.40;;;19.10;41.80;;;;;;5064673;28;20037;-48
2020/12/13 01:37:13;;;;;;;4.80;3.95;;;19.10;42.00;;;;;;5072691;28;20047;-48
2020/12/13 01:39:38;;;;;;;5.25;4.43;;;19.10;41.90;;;;;;5067856;28;20390;-48
2020/12/13 01:42:04;;;;;;;6.90;3.92;;;19.10;41.90;;;;;;5069167;28;20032;-48
2020/12/13 01:44:31;;;;;;;4.20;3.80;;;19.10;42.00;;;;;;5070737;28;20094;-48
2020/12/13 01:46:59;;;;;;;4.70;3.90;;;19.10;42.00;;;;;;5060590;28;20025;-48
2020/12/13 01:49:30;;;;;;;5.07;3.80;;;19.10;42.00;;;;;;5067861;28;20048;-48
2020/12/13 01:52:38;;;;;;;5.40;4.10;;;19.10;41.90;;;;;;5074162;28;20085;-48
2020/12/13 01:54:47;;;;;;;3.80;3.50;;;19.00;41.90;;;;;;5060785;28;20498;-49
2020/12/13 01:57:15;;;;;;;4.63;3.97;;;19.00;41.90;;;;;;5064029;28;20028;-49
2020/12/13 01:59:43;;;;;;;5.50;3.90;;;19.00;41.90;;;;;;5055665;28;20021;-49
2020/12/13 02:02:15;;;;;;;6.18;4.13;;;19.00;41.90;;;;;;5060644;28;20571;-48
2020/12/13 02:04:41;;;;;;;;;;;19.00;41.90;;;;;;5055116;28;20025;-48
2020/12/13 02:07:08;;;;;;;4.18;3.78;;;19.00;42.00;;;;;;5063479;28;20289;-48
2020/12/13 02:09:34;;;;;;;7.28;4.13;;;19.00;42.00;;;;;;5071153;28;20032;-47
2020/12/13 02:11:59;;;;;;;4.97;4.57;;;19.00;42.10;;;;;;5065675;28;20032;-48
2020/12/13 02:14:26;;;;;;;5.40;4.90;;;19.00;41.90;;;;;;5057260;28;20028;-48
2020/12/13 02:16:52;;;;;;;6.22;4.75;;;19.00;42.10;;;;;;5062162;28;20107;-48
2020/12/13 02:19:18;;;;;;;5.32;3.83;;;19.00;42.00;;;;;;5068079;28;20100;-47
2020/12/13 02:21:48;;;;;;;5.15;4.15;;;19.00;41.90;;;;;;5071130;28;20035;-47
2020/12/13 02:24:15;;;;;;;4.80;4.17;;;19.00;41.90;;;;;;5048091;28;20380;-46
2020/12/13 02:26:45;;;;;;;4.55;3.80;;;19.00;42.10;;;;;;5068958;28;20036;-46
2020/12/13 02:29:12;;;;;;;6.00;4.85;;;19.00;42.10;;;;;;5065939;28;20037;-46
2020/12/13 02:31:38;;;;;;;5.47;4.95;;;19.00;42.10;;;;;;5076113;28;20058;-47
2020/12/13 02:34:04;;;;;;;5.35;3.75;;;19.00;42.00;;;;;;5056280;28;20031;-46
2020/12/13 02:36:31;;;;;;;5.45;4.75;;;19.00;42.00;;;;;;5062493;28;20038;-46
2020/12/13 02:38:57;;;;;;;4.95;4.35;;;19.00;42.00;;;;;;5067803;28;20115;-46
2020/12/13 02:41:23;;;;;;;5.43;4.90;;;19.00;42.00;;;;;;5062063;28;20028;-46
2020/12/13 02:43:49;;;;;;;5.25;4.75;;;19.00;42.10;;;;;;5053855;28;20561;-45
2020/12/13 02:46:14;;;;;;;5.63;4.30;;;19.00;42.00;;;;;;5068367;28;20049;-46
2020/12/13 02:48:40;;;;;;;5.90;4.45;;;19.00;42.10;;;;;;5060235;28;20059;-46
2020/12/13 02:51:05;;;;;;;5.57;4.32;;;19.00;42.00;;;;;;5063925;28;20032;-45
2020/12/13 02:53:31;;;;;;;4.53;4.05;;;19.00;42.00;;;;;;5058586;28;20043;-44
2020/12/13 02:55:56;;;;;;;5.00;4.30;;;19.00;42.00;;;;;;5071488;28;20056;-49
2020/12/13 02:58:22;;;;;;;5.00;4.55;;;19.00;41.90;;;;;;5057785;28;20170;-48
2020/12/13 03:00:48;;;;;;;5.30;4.38;;;19.00;42.00;;;;;;5067840;28;20595;-49
2020/12/13 03:03:13;;;;;;;5.68;5.05;;;19.00;42.10;;;;;;5067165;28;20027;-46
2020/12/13 03:05:39;;;;;;;4.63;4.22;;;19.00;42.00;;;;;;5072513;28;20040;-46
2020/12/13 03:08:04;;;;;;;6.05;4.90;;;19.00;42.10;;;;;;5066697;28;20020;-45
2020/12/13 03:10:30;;;;;;;5.78;4.65;;;19.00;42.10;;;;;;5075082;28;20040;-46
2020/12/13 03:12:55;;;;;;;5.75;5.15;;;19.00;42.20;;;;;;5070809;28;20062;-47
2020/12/13 03:15:21;;;;;;;5.93;4.72;;;19.00;42.10;;;;;;5058017;28;20094;-47
2020/12/13 03:17:46;;;;;;;5.50;4.85;;;19.00;42.00;;;;;;5065279;28;20029;-46
2020/12/13 03:20:12;;;;;;;6.85;5.45;;;19.00;42.10;;;;;;5074168;28;20067;-47
2020/12/13 03:22:37;;;;;;;5.95;5.38;;;19.00;42.00;;;;;;5067625;28;20028;-47
2020/12/13 03:25:03;;;;;;;7.75;5.30;;;19.00;42.00;;;;;;5072028;28;20254;-45
2020/12/13 03:27:29;;;;;;;5.85;5.28;;;19.00;42.00;;;;;;5061778;28;20359;-47
2020/12/13 03:29:55;;;;;;;7.93;5.22;;;19.00;42.10;;;;;;5074758;28;20124;-46
2020/12/13 03:32:22;;;;;;;8.40;5.30;;;18.90;42.10;;;;;;5060730;28;20029;-46
2020/12/13 03:34:48;;;;;;;6.25;4.93;;;18.90;42.00;;;;;;5068036;28;20177;-47
2020/12/13 03:37:13;;;;;;;6.60;5.35;;;18.90;41.90;;;;;;5062870;28;20096;-47
2020/12/13 03:39:39;;;;;;;8.48;5.38;;;19.00;42.00;;;;;;5062301;28;20108;-47
2020/12/13 03:42:04;;;;;;;5.93;4.93;;;18.90;42.00;;;;;;5059562;28;20021;-45
2020/12/13 03:44:30;;;;;;;8.18;5.85;;;18.90;42.00;;;;;;5068055;28;20098;-46
2020/12/13 03:46:55;;;;;;;7.18;5.85;;;18.90;42.10;;;;;;5065451;28;20028;-46
2020/12/13 03:49:21;;;;;;;5.90;5.30;;;18.90;42.00;;;;;;5064960;28;20044;-46
2020/12/13 03:51:47;;;;;;;6.38;5.63;;;18.90;42.00;;;;;;5055074;28;20040;-46
2020/12/13 03:54:12;;;;;;;6.70;5.25;;;18.90;42.10;;;;;;5060413;28;20025;-46
2020/12/13 03:56:38;;;;;;;6.43;5.45;;;18.90;42.10;;;;;;5058675;28;20033;-47
2020/12/13 03:59:03;;;;;;;7.07;5.68;;;18.90;42.10;;;;;;5064177;28;20108;-46
2020/12/13 04:01:29;;;;;;;5.85;5.25;;;18.90;42.10;;;;;;5062810;28;20040;-45
2020/12/13 04:03:54;;;;;;;8.07;5.60;;;18.90;42.00;;;;;;5060657;28;20037;-46
2020/12/13 04:06:20;;;;;;;6.40;5.30;;;18.90;42.00;;;;;;5063584;28;20029;-46
2020/12/13 04:08:46;;;;;;;8.32;5.95;;;18.90;42.00;;;;;;5068255;28;20043;-46
2020/12/13 04:11:11;;;;;;;6.40;5.63;;;18.90;42.00;;;;;;5057805;28;20041;-46
2020/12/13 04:13:37;;;;;;;5.78;5.18;;;18.90;42.00;;;;;;5072247;28;20507;-46
2020/12/13 04:16:02;;;;;;;8.10;5.68;;;18.90;42.10;;;;;;5063326;28;21649;-46
2020/12/13 04:18:28;;;;;;;6.20;5.30;;;18.90;42.10;;;;;;5069001;28;20148;-44
2020/12/13 04:20:54;;;;;;;6.88;5.57;;;18.90;42.10;;;;;;5070312;28;20032;-46
2020/12/13 04:23:19;;;;;;;6.13;5.43;;;18.90;42.00;;;;;;5073768;28;20032;-55
2020/12/13 04:25:45;;;;;;;7.15;5.80;;;18.90;42.00;;;;;;5073511;28;20080;-45
2020/12/13 04:28:10;;;;;;;6.43;5.80;;;18.90;42.20;;;;;;5068950;28;20036;-45
2020/12/13 04:30:36;;;;;;;6.10;5.50;;;18.90;42.00;;;;;;5055776;28;20037;-46
2020/12/13 04:33:01;;;;;;;6.32;5.63;;;18.90;42.10;;;;;;5067840;28;20052;-44
2020/12/13 04:35:27;;;;;;;6.63;5.68;;;18.90;42.10;;;;;;5050900;28;20055;-46
2020/12/13 04:37:53;;;;;;;6.25;5.47;;;18.90;42.10;;;;;;5061957;28;20060;-46
2020/12/13 04:40:18;;;;;;;7.65;6.05;;;18.90;42.00;;;;;;5053794;28;20064;-48
2020/12/13 04:42:44;;;;;;;7.15;5.80;;;18.90;42.00;;;;;;5064024;28;20068;-46
2020/12/13 04:45:10;;;;;;;5.72;5.18;;;18.90;42.00;;;;;;5053136;28;20504;-46
2020/12/13 04:48:06;;;;;;;6.95;5.63;;;18.90;42.00;;;;;;5053757;28;20054;-47
2020/12/13 04:50:37;;;;;;;7.57;5.40;;;18.80;42.10;;;;;;5063331;28;20033;-46
2020/12/13 04:53:09;;;;;;;7.40;5.57;;;18.90;42.10;;;;;;5056237;28;20415;-46
2020/12/13 04:55:58;;;;;;;5.78;5.15;;;18.90;42.10;;;;;;5062253;28;20961;-46
2020/12/13 04:58:25;;;;;;;5.38;4.63;;;18.80;42.10;;;;;;5064512;28;20098;-45
2020/12/13 05:01:02;;;;;;;5.10;4.60;;;18.90;42.10;;;;;;5064381;28;20033;-47
2020/12/13 05:03:28;;;;;;;4.97;4.47;;;18.90;42.10;;;;;;5060762;28;20563;-46
2020/12/13 05:06:01;;;;;;;5.57;5.05;;;18.90;42.20;;;;;;5053022;28;20020;-45
2020/12/13 05:08:28;;;;;;;6.00;5.45;;;18.80;42.10;;;;;;5065679;28;20119;-45
2020/12/13 05:10:55;;;;;;;5.60;4.88;;;18.80;42.20;;;;;;5048537;28;20028;-47
2020/12/13 05:13:21;;;;;;;5.30;4.80;;;18.80;42.30;;;;;;5065180;28;20051;-47
2020/12/13 05:15:46;;;;;;;5.47;4.93;;;18.80;42.30;;;;;;5060648;28;20643;-46
2020/12/13 05:18:12;;;;;;;5.82;4.80;;;18.80;42.30;;;;;;5065073;28;20413;-46
2020/12/13 05:20:38;;;;;;;5.38;4.55;;;18.80;42.20;;;;;;5058774;28;20079;-46
2020/12/13 05:23:03;;;;;;;6.00;5.40;;;18.80;42.30;;;;;;5067423;28;20493;-47
2020/12/13 05:25:29;;;;;;;4.97;4.57;;;18.80;42.30;;;;;;5066564;28;20043;-46
2020/12/13 05:27:57;;;;;;;5.93;5.43;;;18.80;42.30;;;;;;5058902;28;20048;-46
2020/12/13 05:30:31;;;;;;;6.57;5.47;;;18.80;42.30;;;;;;5064923;28;20179;-45
2020/12/13 05:32:59;;;;;;;5.50;4.80;;;18.80;42.20;;;;;;5052615;28;20060;-46
2020/12/13 05:35:27;;;;;;;5.97;5.10;;;18.80;42.20;;;;;;5065217;28;20039;-46
2020/12/13 05:37:53;;;;;;;6.13;4.57;;;18.70;42.30;;;;;;5063221;28;20029;-46
2020/12/13 05:40:19;;;;;;;7.55;5.35;;;18.70;42.30;;;;;;5064349;28;20081;-46
2020/12/13 05:42:54;;;;;;;6.30;5.22;;;18.70;42.40;;;;;;5059984;28;20498;-47
2020/12/13 05:45:31;;;;;;;5.47;4.78;;;18.70;42.30;;;;;;5050698;28;20028;-47
2020/12/13 05:52:57;;;;;;;6.15;5.38;;;18.70;42.30;;;;;;5059904;28;20037;-45
2020/12/13 05:55:23;;;;;;;6.10;5.57;;;18.70;42.40;;;;;;5051207;28;20032;-47
2020/12/13 05:57:49;;;;;;;6.40;5.53;;;18.70;42.60;;;;;;5054241;28;20021;-46
2020/12/13 06:00:16;;;;;;;6.78;5.70;;;18.70;42.30;;;;;;5054769;28;20102;-48
2020/12/13 06:02:45;;;;;;;6.53;5.28;;;18.70;42.50;;;;;;5053999;28;20063;-47
2020/12/13 06:05:15;;;;;;;6.20;5.60;;;18.70;42.50;;;;;;5062519;28;20028;-46
2020/12/13 06:07:48;;;;;;;5.57;4.97;;;18.70;42.40;;;;;;5055275;28;20116;-46
2020/12/13 06:10:23;;;;;;;5.13;4.63;;;18.70;42.50;;;;;;5058719;28;20040;-47
2020/12/13 06:13:06;;;;;;;5.63;4.93;;;18.70;42.40;;;;;;5067996;28;20035;-45
2020/12/13 06:15:34;;;;;;;6.22;5.45;;;18.70;42.50;;;;;;5070597;28;20035;-46
2020/12/13 06:18:00;;;;;;;7.22;5.13;;;18.70;42.50;;;;;;5067702;28;20032;-46
2020/12/13 06:20:27;;;;;;;6.25;5.20;;;18.70;42.50;;;;;;5055176;28;20078;-47
2020/12/13 06:22:54;;;;;;;6.13;5.35;;;18.70;42.60;;;;;;5062424;28;20036;-46
2020/12/13 06:25:21;;;;;;;5.90;5.07;;;18.70;42.50;;;;;;5066473;28;20085;-46
2020/12/13 06:27:51;;;;;;;6.38;4.97;;;18.70;42.50;;;;;;5063976;28;20540;-45
2020/12/13 06:30:18;;;;;;;6.03;5.53;;;18.70;42.50;;;;;;5054582;28;20083;-45
2020/12/13 06:32:50;;;;;;;6.07;5.47;;;18.60;42.50;;;;;;5060836;28;20037;-47
2020/12/13 06:35:17;;;;;;;6.30;5.30;;;18.60;42.40;;;;;;5055105;28;20028;-45
2020/12/13 06:37:42;;;;;;;6.25;5.32;;;18.70;42.50;;;;;;5053662;28;20029;-46
2020/12/13 06:40:10;;;;;;;6.22;5.63;;;18.60;42.50;;;;;;5059185;28;20023;-47
2020/12/13 06:42:40;;;;;;;6.55;5.95;;;18.60;42.50;;;;;;5068446;28;20111;-47
2020/12/13 06:45:08;;;;;;;6.93;6.22;;;18.60;42.50;;;;;;5077262;28;20043;-45
2020/12/13 06:47:38;;;;;;;5.35;4.85;;;18.60;42.50;;;;;;5065663;28;20032;-46
2020/12/13 06:50:04;;;;;;;5.68;5.15;;;18.60;42.50;;;;;;5063076;28;20051;-46
2020/12/13 06:52:32;;;;;;;6.63;5.97;;;18.60;42.50;;;;;;5063426;28;20376;-46
2020/12/13 06:55:08;;;;;;;5.55;5.05;;;18.60;42.50;;;;;;5055520;28;20374;-47
2020/12/13 06:57:34;;;;;;;6.45;5.30;;;18.60;42.50;;;;;;5058953;28;20036;-47
2020/12/13 07:00:07;;;;;;;5.95;5.35;;;18.60;42.40;;;;;;5068764;28;20033;-47
2020/12/13 07:02:59;;;;;;;5.70;5.10;;;18.60;42.50;;;;;;5058251;28;20118;-47
2020/12/13 07:05:43;;;;;;;8.00;6.32;;;18.60;42.50;;;;;;5061260;28;20519;-46
2020/12/13 07:08:12;;;;;;;5.78;5.18;;;18.60;42.50;;;;;;5062240;28;20029;-46
2020/12/13 07:10:44;;;;;;;5.90;5.18;;;18.60;42.50;;;;;;5068909;28;20038;-47
2020/12/13 07:13:11;;;;;;;6.35;5.13;;;18.60;42.50;;;;;;5064621;28;20040;-46
2020/12/13 07:15:47;;;;;;;5.97;5.38;;;18.60;42.50;;;;;;5063940;28;20119;-47
2020/12/13 07:18:16;;;;;;;5.47;4.93;;;18.60;42.60;;;;;;5064189;28;20025;-48
2020/12/13 07:20:45;;;;;;;4.78;4.38;;;18.60;42.60;;;;;;5064235;28;20036;-46
2020/12/13 07:23:10;;;;;;;6.07;5.25;;;18.60;42.60;;;;;;5063584;28;20082;-47
2020/12/13 07:25:36;;;;;;;5.85;5.35;;;18.60;42.60;;;;;;5069699;28;21725;-47
2020/12/13 07:28:02;;;;;;;5.85;4.97;;;18.60;42.50;;;;;;5066864;28;20513;-45
2020/12/13 07:30:29;;;;;;;5.18;4.68;;;18.60;42.60;;;;;;5065877;28;20028;-47
2020/12/13 07:32:56;;;;;;;5.50;5.00;;;18.60;42.60;;;;;;5062872;28;20040;-47
2020/12/13 07:35:23;;;;;;;5.15;4.65;;;18.60;42.60;;;;;;5060890;28;20037;-46
2020/12/13 07:37:50;;;;;;;5.93;4.88;;;18.60;42.60;;;;;;5067239;28;20036;-47
2020/12/13 07:40:15;;;;;;;5.72;5.22;;;18.60;43.20;;;;;;5066180;28;20081;-47
2020/12/13 07:42:58;;;;;;;5.78;4.70;;;18.60;42.60;;;;;;5068523;28;20479;-47
2020/12/13 07:45:24;;;;;;;5.70;4.95;;;18.60;42.60;;;;;;5064300;28;20060;-47
2020/12/13 07:48:00;;;;;;;5.65;5.15;;;18.50;42.50;;;;;;5067919;28;20087;-47
2020/12/13 07:50:47;;;;;;;5.25;4.75;;;18.50;42.60;;;;;;5070132;28;20436;-47
2020/12/13 07:53:26;;;;;;;5.65;4.45;;;18.50;42.60;;;;;;5039869;28;20060;-47
2020/12/13 07:55:52;;;;;;;5.47;4.68;;;18.60;42.70;;;;;;5068430;28;20067;-47
2020/12/13 07:58:21;;;;;;;5.10;4.57;;;18.50;42.60;;;;;;5064986;28;20032;-46
2020/12/13 08:00:47;;;;;;;5.47;4.97;;;18.50;42.50;;;;;;5066625;28;20029;-47
2020/12/13 08:03:13;;;;;;;4.75;4.32;;;18.50;42.60;;;;;;5055416;28;20099;-47
2020/12/13 08:05:41;;;;;;;5.88;5.28;;;18.50;42.60;;;;;;5051050;28;20109;-46
2020/12/13 08:08:08;;;;;;;4.63;4.22;;;18.50;42.70;;;;;;5065275;28;20091;-47
2020/12/13 08:10:34;;;;;;;5.72;4.80;;;18.50;42.80;;;;;;5066001;28;20115;-47
2020/12/13 08:13:00;;;;;;;4.78;4.38;;;18.50;43.10;;;;;;5066694;28;20745;-47
2020/12/13 08:15:26;;;;;;;4.82;4.20;;;18.50;43.30;;;;;;5065476;28;20366;-46
2020/12/13 08:18:08;;;;;;;5.22;4.72;;;18.50;43.50;;;;;;5077137;28;20451;-47
2020/12/13 08:20:45;;;;;;;5.30;4.55;;;18.50;43.40;;;;;;5065852;28;20505;-46
2020/12/13 08:23:12;;;;;;;3.80;3.50;;;18.50;43.30;;;;;;5078110;28;20036;-46
2020/12/13 08:25:38;;;;;;;4.45;4.05;;;18.50;43.20;;;;;;5064528;28;20479;-46
2020/12/13 08:28:05;;;;;;;4.82;4.43;;;18.50;43.50;;;;;;5065713;28;20033;-46
2020/12/13 08:30:31;;;;;;;4.22;3.92;;;18.50;43.60;;;;;;5069072;28;20036;-46
2020/12/13 08:32:58;;;;;;;4.55;4.07;;;18.50;43.50;;;;;;5060702;28;20525;-46
2020/12/13 08:35:27;;;;;;;4.55;4.15;;;18.50;43.60;;;;;;5060520;28;20033;-46
2020/12/13 08:37:57;;;;;;;3.88;3.58;;;18.50;43.50;;;;;;5067733;28;20033;-46
2020/12/13 08:40:38;;;;;;;4.65;4.25;;;18.50;43.40;;;;;;5065546;28;20127;-47
2020/12/13 08:43:05;;;;;;;6.05;4.13;;;18.50;43.40;;;;;;5053375;28;20029;-46
2020/12/13 08:45:31;;;;;;;4.13;3.72;;;18.50;43.30;;;;;;5059366;28;20067;-46
2020/12/13 08:48:04;;;;;;;4.30;3.95;;;18.50;43.20;;;;;;5068320;28;20056;-47
2020/12/13 08:50:39;;;;;;;5.10;4.55;;;18.50;43.10;;;;;;5062779;28;20085;-47
2020/12/13 08:53:25;;;;;;;6.55;3.40;;;18.50;43.00;;;;;;5055251;28;20036;-46
2020/12/13 08:56:07;;;;;;;4.15;3.78;;;18.50;43.10;;;;;;5064984;28;20024;-47
2020/12/13 08:58:52;;;;;;;4.40;3.85;;;18.50;43.00;;;;;;5068881;28;20057;-47
2020/12/13 09:01:21;;;;;;;4.95;4.45;;;18.50;43.10;;;;;;5050997;28;20032;-46
2020/12/13 09:03:47;;;;;;;4.80;4.40;;;18.50;43.10;;;;;;5058795;28;20108;-48
2020/12/13 09:06:23;;;;;;;3.92;3.60;;;18.50;43.10;;;;;;5069180;28;20112;-46
2020/12/13 09:08:49;;;;;;;5.22;4.47;;;18.50;43.10;;;;;;5057665;28;20048;-46
2020/12/13 09:11:28;;;;;;;4.30;3.90;;;18.50;43.00;;;;;;5066097;28;20048;-47
2020/12/13 09:13:54;;;;;;;6.10;4.22;;;18.50;43.00;;;;;;5058508;28;20036;-46
2020/12/13 09:16:27;;;;;;;5.78;4.20;;;18.50;43.00;;;;;;5061986;28;20059;-47
2020/12/13 09:19:10;;;;;;;3.75;3.45;;;18.50;43.00;;;;;;5044241;28;20075;-47
2020/12/13 09:21:41;;;;;;;;;;;18.50;43.00;;;;;;5039772;28;20017;-47
2020/12/13 09:24:07;;;;;;;4.50;4.20;;;18.50;42.90;;;;;;5050867;28;19932;-46
2020/12/13 09:26:32;;;;;;;4.20;3.75;;;18.50;43.00;;;;;;5066915;28;20029;-46
2020/12/13 09:28:58;;;;;;;4.97;4.43;;;18.40;42.90;;;;;;5049657;28;20336;-47
2020/12/13 09:31:23;;;;;;;4.75;4.35;;;18.50;43.00;;;;;;5065436;28;20090;-46
2020/12/13 09:33:49;;;;;;;5.63;4.80;;;18.50;43.00;;;;;;5055292;28;20029;-46
2020/12/13 09:36:14;;;;;;;5.93;5.28;;;18.50;43.00;;;;;;5056222;28;20089;-46
2020/12/13 09:38:40;;;;;;;5.05;4.45;;;18.40;42.90;;;;;;5075310;22;20055;-46
2020/12/13 09:41:06;;;;;;;4.75;4.15;;;18.50;42.90;;;;;;5059389;28;20100;-46
2020/12/13 09:43:31;;;;;;;5.22;4.72;;;18.50;42.90;;;;;;5070972;28;20024;-44
2020/12/13 09:45:57;;;;;;;5.15;4.65;;;18.50;42.90;;;;;;5060720;28;20549;-46
2020/12/13 09:48:22;;;;;;;6.05;4.82;;;18.50;42.80;;;;;;5045783;28;20039;-45
2020/12/13 09:50:48;;;;;;;5.00;4.35;;;18.40;42.90;;;;;;5048825;28;20029;-46
2020/12/13 09:53:13;;;;;;;5.60;5.15;;;18.50;42.90;;;;;;5050563;28;20043;-48
2020/12/13 09:55:39;;;;;;;6.55;4.90;;;18.50;42.90;;;;;;5050226;28;20052;-44
2020/12/13 09:58:05;;;;;;;6.82;4.63;;;18.50;42.80;;;;;;5049906;28;20401;-46
2020/12/13 10:00:30;;;;;;;5.47;4.82;;;18.50;42.80;;;;;;5050970;28;20100;-47
2020/12/13 10:02:56;;;;;;;4.60;4.18;;;18.50;42.80;;;;;;5050101;28;20420;-48
2020/12/13 10:05:28;;;;;;;5.70;5.13;;;18.40;42.80;;;;;;5050454;28;20036;-45
2020/12/13 10:10:37;;;;;;;5.47;4.97;;;18.50;42.80;;;;;;5045965;28;20074;-46
2020/12/13 10:13:03;;;;;;;5.30;4.85;;;18.50;42.90;;;;;;5047071;28;20557;-44
2020/12/13 10:15:29;;;;;;;5.45;4.95;;;18.50;42.90;;;;;;5047929;28;20045;-42
2020/12/13 10:17:54;;;;;;;4.28;3.88;;;18.50;42.90;;;;;;5049216;28;20766;-46
2020/12/13 10:20:20;;;;;;;5.15;4.65;;;18.40;42.90;;;;;;5051291;28;20033;-46
2020/12/13 10:22:46;;;;;;;5.22;4.72;;;18.50;42.90;;;;;;5041105;28;20035;-47
2020/12/13 10:25:11;;;;;;;4.72;4.28;;;18.50;42.80;;;;;;5046582;28;20032;-48
2020/12/13 10:27:37;;;;;;;5.35;4.80;;;18.50;42.80;;;;;;5043054;28;20048;-47
2020/12/13 10:30:02;;;;;;;5.25;4.75;;;18.50;42.80;;;;;;5048646;28;20036;-47
2020/12/13 10:32:28;;;;;;;4.78;4.38;;;18.50;42.80;;;;;;5046731;28;20037;-48
2020/12/13 10:34:54;;;;;;;6.03;5.00;;;18.50;42.80;;;;;;5043587;28;20033;-48
2020/12/13 10:37:19;;;;;;;5.85;5.25;;;18.50;42.70;;;;;;5046848;28;20646;-44
2020/12/13 10:39:45;;;;;;;5.53;4.78;;;18.40;42.70;;;;;;5048589;28;20025;-45
2020/12/13 10:42:10;;;;;;;3.95;3.65;;;18.50;42.70;;;;;;5048131;28;20036;-49
2020/12/13 10:44:36;;;;;;;4.57;4.18;;;18.50;42.70;;;;;;5048782;28;20037;-45
2020/12/13 10:47:01;;;;;;;4.65;4.25;;;18.50;42.80;;;;;;5044031;28;20031;-48
2020/12/13 10:49:27;;;;;;;5.40;4.90;;;18.50;42.70;;;;;;5048349;28;20032;-47
2020/12/13 10:51:53;;;;;;;4.38;4.07;;;18.50;42.70;;;;;;5039985;28;20044;-46
2020/12/13 10:54:19;;;;;;;4.68;4.28;;;18.50;42.70;;;;;;5048823;28;20041;-48
2020/12/13 10:56:44;;;;;;;5.72;5.22;;;18.50;42.70;;;;;;5043129;28;20113;-47
2020/12/13 10:59:10;;;;;;;4.38;4.07;;;18.50;42.70;;;;;;5031714;28;20060;-48
2020/12/13 11:01:36;;;;;;;6.13;4.47;;;18.50;42.70;;;;;;5041600;28;20025;-46
2020/12/13 11:04:01;;;;;;;5.68;5.07;;;18.50;42.70;;;;;;5047700;28;20029;-45
2020/12/13 11:06:28;;;;;;;4.85;4.35;;;18.50;42.70;;;;;;5042792;28;20032;-45
2020/12/13 11:08:54;;;;;;;5.20;4.60;;;18.50;42.70;;;;;;5042899;28;20036;-49
2020/12/13 11:11:23;;;;;;;4.68;4.18;;;18.40;42.60;;;;;;5048486;28;20047;-44
2020/12/13 11:13:49;;;;;;;5.38;4.85;;;18.40;42.60;;;;;;5047239;28;20025;-45
2020/12/13 11:16:14;;;;;;;4.97;4.57;;;18.50;42.70;;;;;;5050781;28;20033;-46
2020/12/13 11:18:40;;;;;;;4.80;4.40;;;18.40;42.70;;;;;;5048467;28;20060;-44
2020/12/13 11:21:05;;;;;;;5.45;4.95;;;18.40;42.60;;;;;;5048575;28;20025;-44
2020/12/13 11:23:31;;;;;;;5.05;4.55;;;18.40;42.70;;;;;;5041992;28;20547;-49
2020/12/13 11:25:56;;;;;;;5.32;4.32;;;18.40;42.70;;;;;;5048826;28;20062;-48
2020/12/13 11:28:22;;;;;;;5.45;4.95;;;18.40;42.70;;;;;;5041307;28;20022;-44
2020/12/13 11:30:47;;;;;;;4.82;4.43;;;18.40;42.70;;;;;;5049743;28;20516;-47
2020/12/13 11:33:13;;;;;;;4.28;3.97;;;18.40;42.60;;;;;;5040849;28;20053;-46
2020/12/13 11:35:39;;;;;;;4.40;4.10;;;18.40;42.60;;;;;;5049644;28;20470;-45
2020/12/13 11:38:04;;;;;;;4.47;4.07;;;18.40;42.60;;;;;;5046670;28;20071;-45
2020/12/13 11:40:30;;;;;;;5.35;4.70;;;18.40;42.70;;;;;;5045461;28;20033;-46
2020/12/13 11:42:56;;;;;;;5.70;5.05;;;18.40;42.60;;;;;;5045226;28;20032;-47
2020/12/13 11:45:21;;;;;;;4.45;4.15;;;18.40;42.60;;;;;;5041154;28;20060;-45
2020/12/13 11:47:48;;;;;;;5.07;4.55;;;18.40;42.60;;;;;;5047473;28;20067;-43
2020/12/13 11:50:13;;;;;;;4.30;4.00;;;18.40;42.60;;;;;;5045560;28;20028;-44
2020/12/13 11:52:39;;;;;;;5.30;4.25;;;18.40;42.60;;;;;;5047491;28;20033;-46
2020/12/13 11:55:06;;;;;;;5.05;4.57;;;18.40;42.60;;;;;;5047740;28;20024;-47
2020/12/13 11:57:31;;;;;;;5.05;4.30;;;18.40;42.60;;;;;;5048642;28;20389;-44
2020/12/13 11:59:57;;;;;;;5.35;4.93;;;18.40;42.60;;;;;;5045774;28;20033;-50
2020/12/13 12:02:22;;;;;;;5.32;4.85;;;18.40;42.60;;;;;;5044732;28;20028;-46
2020/12/13 12:04:48;;;;;;;5.20;4.70;;;18.40;42.70;;;;;;5031312;28;20378;-47
2020/12/13 12:07:14;;;;;;;5.50;5.00;;;18.40;42.70;;;;;;5047990;28;20605;-44
2020/12/13 12:09:40;;;;;;;4.95;4.57;;;18.40;42.70;;;;;;5048916;28;20033;-43
2020/12/13 12:12:05;;;;;;;5.22;4.78;;;18.40;42.60;;;;;;5047115;28;20067;-45
2020/12/13 12:14:31;;;;;;;4.72;4.32;;;18.40;42.70;;;;;;5048037;28;20029;-43
2020/12/13 12:16:56;;;;;;;6.00;5.38;;;18.40;42.70;;;;;;5045641;28;20025;-46
2020/12/13 12:19:22;;;;;;;5.68;5.03;;;18.40;42.70;;;;;;5035294;28;20104;-45
2020/12/13 12:21:52;;;;;;;5.53;4.93;;;18.40;42.70;;;;;;5043345;28;20120;-45
2020/12/13 12:24:21;;;;;;;5.47;4.97;;;18.40;42.70;;;;;;5045359;28;20115;-45
2020/12/13 12:26:51;;;;;;;6.07;5.47;;;18.40;42.70;;;;;;5046978;28;20059;-49
2020/12/13 12:29:20;;;;;;;5.70;5.20;;;18.40;42.70;;;;;;5046561;28;20035;-44
2020/12/13 12:31:47;;;;;;;6.25;5.65;;;18.40;42.70;;;;;;5047642;28;20086;-46
2020/12/13 12:34:13;;;;;;;6.75;5.70;;;18.40;42.70;;;;;;5047804;28;20040;-45
2020/12/13 12:36:39;;;;;;;5.65;5.15;;;18.40;42.70;;;;;;5045424;28;20025;-46
2020/12/13 12:39:05;;;;;;;4.85;4.35;;;18.40;42.80;;;;;;5047348;28;20027;-47
2020/12/13 12:41:31;;;;;;;6.30;5.57;;;18.40;42.80;;;;;;5040963;28;20029;-47
2020/12/13 12:43:57;;;;;;;4.85;4.35;;;18.40;43.00;;;;;;5048035;28;20037;-45
2020/12/13 12:46:22;;;;;;;4.75;4.25;;;18.40;43.10;;;;;;5047066;28;20131;-45
2020/12/13 12:48:48;;;;;;;5.32;4.70;;;18.50;43.00;;;;;;5046436;28;20028;-47
2020/12/13 12:51:15;;;;;;;4.85;4.45;;;18.70;42.70;;;;;;5047374;28;20074;-43
2020/12/13 12:53:41;;;;;;;5.78;4.60;;;18.80;42.50;;;;;;5046208;28;20037;-46
2020/12/13 12:56:07;;;;;;;6.43;4.57;;;19.00;42.20;;;;;;5043832;28;20486;-46
2020/12/13 13:01:24;;;;;;;4.35;3.95;;;19.20;41.80;;;;;;5042281;28;20025;-44